Pagina principale
METAR-TAF:

METAR-TAF

Aeroporti :

Pisa, Italia

Aeroporto di Pisa-San Giusto

latitudine: 43-41N, longitudine: 010-23E, altezza: 2 m

Osservazione

Il bollettino è stato emesso 16 minuti fa, alle 20:15 UTC
Vento 3 kt da sud-ovest
Temperature 22°C
Umidità 88%
Pressione 1005 hPa
Visibilità 10 km o più
Poco nuvoloso ad un'altezza di 4000 ft

METAR: LIRP 252015Z 23003KT 9999 FEW040 22/20 Q1005 NOSIG

Ora: 22:31 (20:31 UTC)

Previsione

Il bollettino è stato emesso 3 ore e 31 minuti fa, alle 17:00 UTC
Previsione valida dal 25 alle 18 UTC al 26 alle 18 UTC
Vento 10 kt da ovest
Visibilità 10 km o più
Poco nuvoloso ad un'altezza di 4000 ft
Evoluzione graduale
dal 25 alle 20 UTC al 25 alle 22 UTC
Vento 5 kt da est
Evoluzione graduale
dal 26 alle 11 UTC al 26 alle 12 UTC
Vento 10 kt da ovest

TAF: LIRP 251700Z 2518/2618 26010KT 9999 FEW040 BECMG 2520/2522 09005KT BECMG 2611/2612 26010KT

Osservazioni e previsioni meteorologiche di più di 4000 aeroporti (messaggi METAR e TAF).

Le stazioni disponibili sono rappresentate dai dischi gialli e rossi sulla carta.

Puntare il mouse per vedere il nome della stazione.

Clicca sopra per visualizzare le osservazioni e previsioni meteorologiche.

Per cambiare la mappa : fare clic sui pulsanti verdi con una croce nera per ingrandire, il pulsante verde con un trattino per diminuire, o sulla freccia verde per le mappe adiacenti.


METAR-TAF: